createdAt,value
2023-04-26T00:02:18.532Z,-62
2023-04-26T00:07:20.132Z,-62
2023-04-26T00:12:21.910Z,-62
2023-04-26T00:17:23.049Z,-62
2023-04-26T00:22:24.916Z,-63
2023-04-26T00:27:26.115Z,-62
2023-04-26T00:32:27.418Z,-62
2023-04-26T00:37:28.642Z,-62
2023-04-26T00:42:29.878Z,-62
2023-04-26T00:47:31.192Z,-70
2023-04-26T00:52:32.450Z,-62
2023-04-26T00:57:33.658Z,-62
2023-04-26T01:02:34.996Z,-63
2023-04-26T01:07:36.980Z,-62
2023-04-26T01:12:38.177Z,-62
2023-04-26T01:17:39.614Z,-62
2023-04-26T01:22:41.448Z,-62
2023-04-26T01:27:42.652Z,-62
2023-04-26T01:32:43.875Z,-62
2023-04-26T01:37:45.325Z,-62
2023-04-26T01:42:46.510Z,-62
2023-04-26T01:47:47.693Z,-62
2023-04-26T01:52:48.946Z,-62
2023-04-26T01:57:50.206Z,-62
2023-04-26T02:02:51.548Z,-62
2023-04-26T02:07:52.750Z,-62
2023-04-26T02:12:54.029Z,-62
2023-04-26T02:17:55.772Z,-62
2023-04-26T02:22:57.079Z,-62
2023-04-26T02:27:58.296Z,-62
2023-04-26T02:32:59.561Z,-63
2023-04-26T02:38:00.766Z,-62
2023-04-26T02:43:02.194Z,-62
2023-04-26T02:48:03.405Z,-62
2023-04-26T02:53:04.686Z,-62
2023-04-26T02:58:06.368Z,-62
2023-04-26T03:03:07.745Z,-62
2023-04-26T03:08:09.123Z,-62
2023-04-26T03:13:10.321Z,-62
2023-04-26T03:18:11.489Z,-68
2023-04-26T03:23:12.784Z,-62
2023-04-26T03:28:13.994Z,-65
2023-04-26T03:33:15.225Z,-62
2023-04-26T03:38:16.497Z,-62
2023-04-26T03:43:17.635Z,-63
2023-04-26T03:48:18.837Z,-62
2023-04-26T03:53:20.539Z,-62
2023-04-26T03:58:21.765Z,-62
2023-04-26T04:03:23.093Z,-62
2023-04-26T04:08:24.364Z,-62
2023-04-26T04:13:25.519Z,-62
2023-04-26T04:18:26.656Z,-62
2023-04-26T04:23:28.032Z,-62
2023-04-26T04:28:29.849Z,-62
2023-04-26T04:33:31.054Z,-62
2023-04-26T04:38:32.225Z,-62
2023-04-26T04:43:33.833Z,-62
2023-04-26T04:48:35.826Z,-62
2023-04-26T04:53:37.276Z,-62
2023-04-26T04:58:38.539Z,-66
2023-04-26T05:03:39.878Z,-62
2023-04-26T05:08:41.445Z,-62
2023-04-26T05:13:42.664Z,-62
2023-04-26T05:18:43.937Z,-63
2023-04-26T05:23:45.274Z,-63
2023-04-26T05:28:46.564Z,-62
2023-04-26T05:33:47.724Z,-62
2023-04-26T05:38:48.894Z,-63
2023-04-26T05:43:50.647Z,-62
2023-04-26T05:48:52.281Z,-63
2023-04-26T05:53:53.861Z,-64
2023-04-26T05:58:55.125Z,-63
2023-04-26T06:03:59.824Z,-63
2023-04-26T06:09:02.061Z,-63
2023-04-26T06:14:03.222Z,-63
2023-04-26T06:19:04.394Z,-63
2023-04-26T06:24:05.538Z,-62
2023-04-26T06:29:07.146Z,-63
2023-04-26T06:34:08.553Z,-63
2023-04-26T06:39:09.866Z,-63
2023-04-26T06:44:11.145Z,-63
2023-04-26T06:49:12.718Z,-62
2023-04-26T06:54:13.951Z,-63
2023-04-26T06:59:15.214Z,-63
2023-04-26T07:04:18.791Z,-63
2023-04-26T07:09:20.126Z,-63
2023-04-26T07:14:21.376Z,-63
2023-04-26T07:19:23.283Z,-63
2023-04-26T07:24:24.740Z,-64
2023-04-26T07:29:26.177Z,-63
2023-04-26T07:34:27.332Z,-63
2023-04-26T07:39:28.572Z,-64
2023-04-26T07:44:29.838Z,-64
2023-04-26T07:49:31.113Z,-67
2023-04-26T07:54:32.318Z,-67
2023-04-26T07:59:33.542Z,-67
2023-04-26T08:04:34.949Z,-64
2023-04-26T08:09:36.417Z,-65
2023-04-26T08:14:38.582Z,-65
2023-04-26T08:19:39.907Z,-63
2023-04-26T08:24:41.098Z,-63
2023-04-26T08:29:42.970Z,-64
2023-04-26T08:34:44.205Z,-68
2023-04-26T08:39:45.521Z,-67
2023-04-26T08:44:46.775Z,-68
2023-04-26T08:49:48.877Z,-68
2023-04-26T08:54:50.208Z,-68
2023-04-26T08:59:52.754Z,-69
2023-04-26T09:04:54.222Z,-64
2023-04-26T09:09:55.468Z,-64
2023-04-26T09:14:56.775Z,-66
2023-04-26T09:19:58.037Z,-63
2023-04-26T09:24:59.309Z,-66
2023-04-26T09:30:00.565Z,-64
2023-04-26T09:35:01.748Z,-63
2023-04-26T09:40:04.495Z,-63
2023-04-26T09:45:05.901Z,-64
2023-04-26T09:50:07.725Z,-68
2023-04-26T09:55:11.073Z,-68
2023-04-26T10:00:15.238Z,-67
2023-04-26T10:05:16.484Z,-67
2023-04-26T10:10:17.777Z,-66
2023-04-26T10:15:19.194Z,-68
2023-04-26T10:20:20.560Z,-64
2023-04-26T10:25:21.730Z,-68
2023-04-26T10:30:23.203Z,-68
2023-04-26T10:35:24.508Z,-64
2023-04-26T10:40:25.736Z,-64
2023-04-26T10:45:27.539Z,-64
2023-04-26T10:50:28.804Z,-64
2023-04-26T10:55:29.957Z,-69
2023-04-26T11:00:32.687Z,-67
2023-04-26T11:05:34.379Z,-67
2023-04-26T11:10:36.798Z,-64
2023-04-26T11:15:38.061Z,-64
2023-04-26T11:20:39.306Z,-64
2023-04-26T11:25:40.505Z,-64
2023-04-26T11:30:41.775Z,-65
2023-04-26T11:35:43.031Z,-64
2023-04-26T11:40:44.210Z,-64
2023-04-26T11:45:45.392Z,-64
2023-04-26T11:50:47.016Z,-64
2023-04-26T11:55:48.262Z,-64
2023-04-26T12:00:49.405Z,-66
2023-04-26T12:05:50.589Z,-64
2023-04-26T12:10:51.809Z,-64
2023-04-26T12:15:52.986Z,-64
2023-04-26T12:20:54.114Z,-64
2023-04-26T12:25:55.603Z,-64
2023-04-26T12:30:56.828Z,-64
2023-04-26T12:36:00.213Z,-64
2023-04-26T12:41:01.662Z,-64
2023-04-26T12:46:02.911Z,-65
2023-04-26T12:51:04.624Z,-65
2023-04-26T12:56:05.904Z,-65
2023-04-26T13:01:07.170Z,-64
2023-04-26T13:06:08.496Z,-65
2023-04-26T13:11:09.705Z,-67
2023-04-26T13:16:11.727Z,-65
2023-04-26T13:21:13.253Z,-66
2023-04-26T13:26:17.517Z,-67
2023-04-26T13:31:19.193Z,-66
2023-04-26T13:36:20.641Z,-67
2023-04-26T13:41:22.386Z,-65
2023-04-26T13:46:23.698Z,-65
2023-04-26T13:51:25.177Z,-65
2023-04-26T13:56:26.461Z,-67
2023-04-26T14:01:27.693Z,-67
2023-04-26T14:06:28.909Z,-64
2023-04-26T14:11:30.297Z,-65
2023-04-26T14:16:31.690Z,-68
2023-04-26T14:21:32.935Z,-65
2023-04-26T14:26:34.093Z,-64
2023-04-26T14:31:35.479Z,-68
2023-04-26T14:36:36.889Z,-67
2023-04-26T14:41:38.033Z,-65
2023-04-26T14:46:39.322Z,-65
2023-04-26T14:51:40.736Z,-66
2023-04-26T14:56:42.220Z,-66
2023-04-26T15:01:44.178Z,-67
2023-04-26T15:06:45.629Z,-65
2023-04-26T15:11:46.785Z,-68
2023-04-26T15:16:48.080Z,-66
2023-04-26T15:21:49.764Z,-70
2023-04-26T15:26:50.968Z,-68
2023-04-26T15:31:52.419Z,-69
2023-04-26T15:36:53.581Z,-68
2023-04-26T15:41:54.812Z,-68
2023-04-26T15:46:56.144Z,-70
2023-04-26T15:51:57.316Z,-66
2023-04-26T15:56:58.756Z,-66
2023-04-26T16:02:00.118Z,-66
2023-04-26T16:07:01.507Z,-65
2023-04-26T16:12:03.559Z,-66
2023-04-26T16:17:05.059Z,-65
2023-04-26T16:22:06.460Z,-65
2023-04-26T16:27:07.595Z,-65
2023-04-26T16:32:08.833Z,-65
2023-04-26T16:37:10.065Z,-64
2023-04-26T16:42:11.690Z,-64
2023-04-26T16:47:12.912Z,-65
2023-04-26T16:52:14.085Z,-65
2023-04-26T16:57:15.262Z,-65
2023-04-26T17:02:16.489Z,-65
2023-04-26T17:07:17.717Z,-64
2023-04-26T17:12:18.887Z,-64
2023-04-26T17:17:20.140Z,-65
2023-04-26T17:22:21.442Z,-64
2023-04-26T17:27:24.688Z,-65
2023-04-26T17:32:25.905Z,-64
2023-04-26T17:37:28.474Z,-65
2023-04-26T17:42:29.729Z,-64
2023-04-26T17:47:31.319Z,-64
2023-04-26T17:52:32.526Z,-64
2023-04-26T17:57:33.751Z,-65
2023-04-26T18:02:35.166Z,-64
2023-04-26T18:07:36.526Z,-64
2023-04-26T18:12:38.012Z,-64
2023-04-26T18:17:39.259Z,-64
2023-04-26T18:22:40.613Z,-64
2023-04-26T18:27:41.811Z,-64
2023-04-26T18:32:43.113Z,-69
2023-04-26T18:37:44.413Z,-64
2023-04-26T18:42:45.685Z,-64
2023-04-26T18:47:47.089Z,-64
2023-04-26T18:52:48.312Z,-64
2023-04-26T18:57:49.548Z,-67
2023-04-26T19:02:51.164Z,-67
2023-04-26T19:07:55.665Z,-67
2023-04-26T19:12:57.016Z,-64
2023-04-26T19:17:58.402Z,-64
2023-04-26T19:22:59.779Z,-66
2023-04-26T19:28:00.937Z,-66
2023-04-26T19:33:02.259Z,-65
2023-04-26T19:38:06.638Z,-68
2023-04-26T19:43:07.773Z,-65
2023-04-26T19:48:10.034Z,-68
2023-04-26T19:53:11.302Z,-67
2023-04-26T19:58:12.530Z,-66
2023-04-26T20:03:13.841Z,-67
2023-04-26T20:08:15.156Z,-67
2023-04-26T20:13:16.670Z,-64
2023-04-26T20:18:17.853Z,-66
2023-04-26T20:23:19.066Z,-65
2023-04-26T20:28:20.388Z,-63
2023-04-26T20:33:21.828Z,-63
2023-04-26T20:38:23.285Z,-63
2023-04-26T20:43:24.549Z,-63
2023-04-26T20:48:25.762Z,-63
2023-04-26T20:53:26.998Z,-64
2023-04-26T20:58:29.741Z,-64
2023-04-26T21:03:32.383Z,-63
2023-04-26T21:08:35.346Z,-67
2023-04-26T21:13:37.968Z,-63
2023-04-26T21:18:39.115Z,-63
2023-04-26T21:23:40.426Z,-63
2023-04-26T21:28:41.675Z,-64
2023-04-26T21:33:42.893Z,-63
2023-04-26T21:38:44.039Z,-63
2023-04-26T21:43:45.554Z,-63
2023-04-26T21:48:46.722Z,-63
2023-04-26T21:53:47.895Z,-63
2023-04-26T21:58:49.115Z,-63
2023-04-26T22:03:50.342Z,-63
2023-04-26T22:08:51.557Z,-63
2023-04-26T22:13:52.702Z,-63
2023-04-26T22:18:54.008Z,-63
2023-04-26T22:23:55.364Z,-63
2023-04-26T22:28:56.575Z,-64
2023-04-26T22:33:57.758Z,-63
2023-04-26T22:38:59.482Z,-63
2023-04-26T22:44:00.845Z,-63
2023-04-26T22:49:02.012Z,-63
2023-04-26T22:54:04.222Z,-64
2023-04-26T22:59:05.595Z,-63
2023-04-26T23:04:06.854Z,-64
2023-04-26T23:09:08.612Z,-63
2023-04-26T23:14:10.105Z,-66
2023-04-26T23:19:11.509Z,-63
2023-04-26T23:24:12.940Z,-65
2023-04-26T23:29:14.374Z,-63
2023-04-26T23:34:15.897Z,-63
2023-04-26T23:39:17.657Z,-63
2023-04-26T23:44:18.793Z,-66
2023-04-26T23:49:20.006Z,-63
2023-04-26T23:54:21.189Z,-63
2023-04-26T23:59:23.131Z,-63
